createdAt,value
2023-05-06T00:02:09.259Z,11.67
2023-05-06T00:04:42.126Z,11.53
2023-05-06T00:07:15.076Z,11.50
2023-05-06T00:09:47.882Z,11.41
2023-05-06T00:12:20.681Z,11.45
2023-05-06T00:14:54.947Z,11.44
2023-05-06T00:17:27.786Z,11.46
2023-05-06T00:20:01.025Z,11.44
2023-05-06T00:22:33.911Z,11.27
2023-05-06T00:25:07.780Z,11.13
2023-05-06T00:27:40.964Z,11.10
2023-05-06T00:30:15.501Z,11.00
2023-05-06T00:32:48.423Z,10.96
2023-05-06T00:35:21.405Z,10.97
2023-05-06T00:37:58.595Z,11.00
2023-05-06T00:40:31.386Z,10.99
2023-05-06T00:43:04.470Z,11.00
2023-05-06T00:45:39.868Z,11.01
2023-05-06T00:48:13.313Z,11.02
2023-05-06T00:50:47.207Z,10.94
2023-05-06T00:53:22.075Z,10.76
2023-05-06T00:55:55.110Z,10.78
2023-05-06T00:58:28.192Z,10.78
2023-05-06T01:01:03.170Z,10.67
2023-05-06T01:03:36.182Z,10.42
2023-05-06T01:06:17.994Z,10.46
2023-05-06T01:08:58.626Z,10.47
2023-05-06T01:11:42.221Z,10.49
2023-05-06T01:14:22.971Z,10.33
2023-05-06T01:17:04.155Z,10.47
2023-05-06T01:19:42.012Z,10.50
2023-05-06T01:22:16.814Z,10.53
2023-05-06T01:24:51.007Z,10.58
2023-05-06T01:27:24.204Z,10.60
2023-05-06T01:29:57.397Z,10.45
2023-05-06T01:32:44.956Z,10.48
2023-05-06T01:35:24.590Z,10.44
2023-05-06T01:38:06.146Z,10.48
2023-05-06T01:40:43.588Z,10.46
2023-05-06T01:43:17.886Z,10.55
2023-05-06T01:45:53.391Z,10.60
2023-05-06T01:48:29.094Z,10.62
2023-05-06T01:51:02.621Z,10.66
2023-05-06T01:53:35.389Z,10.53
2023-05-06T01:56:09.595Z,10.56
2023-05-06T01:58:43.835Z,10.59
2023-05-06T02:01:16.892Z,10.55
2023-05-06T02:03:49.865Z,10.50
2023-05-06T02:06:23.210Z,10.31
2023-05-06T02:08:56.070Z,10.15
2023-05-06T02:11:32.508Z,9.94
2023-05-06T02:14:09.791Z,9.94
2023-05-06T02:16:42.859Z,9.95
2023-05-06T02:19:19.064Z,10.02
2023-05-06T02:21:51.930Z,9.95
2023-05-06T02:24:25.016Z,9.87
2023-05-06T02:26:59.317Z,9.86
2023-05-06T02:29:32.368Z,10.01
2023-05-06T02:32:06.207Z,10.02
2023-05-06T02:34:39.217Z,9.89
2023-05-06T02:37:12.020Z,9.94
2023-05-06T02:39:44.752Z,9.91
2023-05-06T02:42:18.976Z,9.83
2023-05-06T02:44:51.806Z,9.95
2023-05-06T02:47:24.706Z,9.95
2023-05-06T02:49:57.896Z,9.80
2023-05-06T02:52:30.703Z,9.76
2023-05-06T02:55:03.795Z,9.79
2023-05-06T02:57:37.965Z,9.82
2023-05-06T03:00:16.263Z,9.85
2023-05-06T03:02:49.154Z,9.81
2023-05-06T03:05:22.097Z,9.84
2023-05-06T03:07:55.236Z,9.80
2023-05-06T03:10:28.126Z,9.42
2023-05-06T03:13:04.267Z,9.37
2023-05-06T03:15:37.106Z,9.60
2023-05-06T03:18:09.989Z,9.72
2023-05-06T03:20:43.014Z,9.83
2023-05-06T03:23:16.190Z,9.72
2023-05-06T03:25:49.376Z,9.60
2023-05-06T03:28:24.778Z,9.74
2023-05-06T03:30:58.039Z,9.75
2023-05-06T03:33:31.008Z,9.69
2023-05-06T03:36:04.773Z,9.59
2023-05-06T03:38:37.875Z,9.75
2023-05-06T03:41:14.054Z,9.75
2023-05-06T03:43:48.950Z,9.72
2023-05-06T03:46:25.020Z,9.69
2023-05-06T03:48:58.229Z,9.70
2023-05-06T03:51:31.942Z,9.79
2023-05-06T03:54:05.428Z,9.72
2023-05-06T03:56:40.939Z,9.76
2023-05-06T03:59:15.863Z,9.80
2023-05-06T04:01:49.146Z,9.81
2023-05-06T04:04:22.988Z,9.83
2023-05-06T04:06:55.806Z,9.69
2023-05-06T04:09:30.205Z,9.70
2023-05-06T04:12:04.079Z,9.76
2023-05-06T04:14:38.347Z,9.83
2023-05-06T04:17:11.535Z,9.88
2023-05-06T04:19:44.384Z,9.78
2023-05-06T04:22:17.194Z,9.86
2023-05-06T04:24:50.460Z,9.89
2023-05-06T04:27:25.446Z,9.99
2023-05-06T04:29:59.435Z,10.16
2023-05-06T04:32:33.980Z,10.25
2023-05-06T04:35:09.035Z,10.25
2023-05-06T04:37:44.560Z,10.29
2023-05-06T04:40:27.671Z,10.26
2023-05-06T04:43:01.182Z,10.25
2023-05-06T04:45:37.772Z,10.02
2023-05-06T04:48:11.027Z,10.03
2023-05-06T04:50:43.845Z,10.05
2023-05-06T04:53:16.734Z,10.20
2023-05-06T04:55:49.689Z,10.41
2023-05-06T04:58:23.105Z,10.42
2023-05-06T05:00:58.195Z,10.38
2023-05-06T05:03:31.598Z,10.30
2023-05-06T05:06:04.954Z,10.27
2023-05-06T05:08:38.002Z,10.50
2023-05-06T05:11:10.821Z,10.50
2023-05-06T05:13:44.097Z,10.63
2023-05-06T05:16:18.807Z,10.81
2023-05-06T05:18:52.930Z,10.88
2023-05-06T05:21:31.606Z,10.82
2023-05-06T05:24:05.792Z,10.79
2023-05-06T05:26:39.253Z,10.78
2023-05-06T05:29:12.052Z,10.99
2023-05-06T05:31:46.767Z,10.83
2023-05-06T05:34:19.886Z,10.92
2023-05-06T05:36:53.973Z,11.02
2023-05-06T05:39:27.018Z,11.00
2023-05-06T05:41:59.829Z,11.10
2023-05-06T05:44:33.413Z,11.24
2023-05-06T05:47:07.632Z,11.20
2023-05-06T05:49:41.774Z,11.27
2023-05-06T05:52:15.672Z,11.29
2023-05-06T05:54:48.507Z,11.15
2023-05-06T05:57:21.757Z,11.37
2023-05-06T05:59:55.574Z,11.49
2023-05-06T06:02:29.868Z,11.55
2023-05-06T06:05:03.034Z,11.63
2023-05-06T06:07:36.373Z,11.72
2023-05-06T06:10:09.575Z,11.65
2023-05-06T06:12:44.084Z,11.86
2023-05-06T06:15:19.253Z,11.69
2023-05-06T06:17:55.907Z,11.86
2023-05-06T06:20:31.781Z,11.96
2023-05-06T06:23:07.771Z,11.99
2023-05-06T06:25:40.748Z,12.16
2023-05-06T06:28:13.596Z,12.23
2023-05-06T06:30:46.650Z,12.13
2023-05-06T06:33:21.082Z,12.27
2023-05-06T06:35:53.864Z,12.37
2023-05-06T06:38:26.944Z,12.55
2023-05-06T06:41:00.368Z,12.44
2023-05-06T06:43:33.364Z,12.50
2023-05-06T06:46:07.843Z,12.63
2023-05-06T06:48:42.059Z,12.58
2023-05-06T06:51:14.802Z,13.00
2023-05-06T06:53:48.979Z,12.93
2023-05-06T06:56:21.848Z,13.01
2023-05-06T06:58:54.956Z,13.15
2023-05-06T07:01:27.845Z,13.19
2023-05-06T07:04:02.388Z,13.17
2023-05-06T07:06:35.293Z,13.18
2023-05-06T07:09:08.514Z,13.48
2023-05-06T07:11:41.579Z,13.55
2023-05-06T07:14:14.532Z,13.68
2023-05-06T07:16:49.338Z,13.78
2023-05-06T07:19:25.334Z,13.92
2023-05-06T07:21:58.234Z,14.04
2023-05-06T07:24:31.105Z,14.10
2023-05-06T07:27:04.237Z,14.27
2023-05-06T07:29:37.398Z,14.43
2023-05-06T07:32:10.306Z,14.29
2023-05-06T07:34:44.658Z,14.42
2023-05-06T07:37:17.795Z,14.40
2023-05-06T07:39:51.304Z,15.03
2023-05-06T07:42:24.592Z,15.16
2023-05-06T07:44:57.443Z,15.25
2023-05-06T07:47:32.638Z,15.37
2023-05-06T07:50:08.835Z,15.23
2023-05-06T07:52:41.852Z,15.59
2023-05-06T07:55:14.702Z,15.58
2023-05-06T07:57:47.861Z,15.50
2023-05-06T08:00:22.280Z,15.85
2023-05-06T08:02:55.887Z,16.03
2023-05-06T08:05:30.365Z,16.14
2023-05-06T08:08:03.394Z,16.32
2023-05-06T08:10:36.226Z,16.53
2023-05-06T08:13:09.082Z,16.72
2023-05-06T08:15:42.066Z,16.79
2023-05-06T08:18:22.406Z,16.65
2023-05-06T08:20:57.232Z,16.93
2023-05-06T08:23:30.527Z,16.89
2023-05-06T08:26:03.352Z,17.03
2023-05-06T08:28:36.431Z,17.33
2023-05-06T08:31:09.237Z,17.73
2023-05-06T08:33:42.039Z,17.31
2023-05-06T08:36:16.198Z,17.65
2023-05-06T08:38:51.450Z,17.96
2023-05-06T08:41:27.660Z,18.22
2023-05-06T08:44:03.808Z,18.51
2023-05-06T08:46:36.845Z,18.41
2023-05-06T08:49:10.917Z,18.20
2023-05-06T08:51:46.517Z,18.70
2023-05-06T08:54:19.717Z,19.20
2023-05-06T08:56:54.680Z,19.45
2023-05-06T08:59:30.730Z,19.31
2023-05-06T09:02:04.249Z,19.52
2023-05-06T09:04:38.187Z,19.80
2023-05-06T09:07:13.013Z,19.96
2023-05-06T09:09:45.913Z,20.07
2023-05-06T09:12:18.684Z,19.90
2023-05-06T09:14:51.997Z,20.75
2023-05-06T09:17:26.686Z,20.79
2023-05-06T09:19:59.984Z,21.09
2023-05-06T09:22:34.122Z,20.63
2023-05-06T09:25:08.373Z,20.58
2023-05-06T09:27:41.655Z,21.34
2023-05-06T09:30:15.415Z,22.19
2023-05-06T09:32:49.682Z,21.91
2023-05-06T09:35:28.182Z,20.56
2023-05-06T09:38:02.468Z,20.21
2023-05-06T09:40:36.224Z,20.26
2023-05-06T09:43:10.536Z,20.81
2023-05-06T09:45:44.530Z,20.84
2023-05-06T09:48:17.387Z,20.69
2023-05-06T09:50:50.505Z,20.68
2023-05-06T09:53:25.172Z,20.95
2023-05-06T09:56:00.404Z,21.15
2023-05-06T09:58:34.779Z,22.01
2023-05-06T10:01:08.194Z,22.41
2023-05-06T10:03:43.027Z,22.92
2023-05-06T10:06:16.266Z,21.75
2023-05-06T10:08:51.116Z,21.68
2023-05-06T10:11:24.311Z,21.41
2023-05-06T10:13:57.679Z,21.18
2023-05-06T10:16:31.820Z,21.53
2023-05-06T10:19:05.900Z,21.45
2023-05-06T10:21:42.377Z,22.59
2023-05-06T10:24:19.451Z,21.46
2023-05-06T10:26:55.932Z,22.22
2023-05-06T10:29:28.747Z,22.44
2023-05-06T10:32:04.270Z,23.15
2023-05-06T10:34:42.569Z,22.86
2023-05-06T10:37:16.959Z,22.67
2023-05-06T10:39:51.303Z,21.84
2023-05-06T10:42:27.844Z,22.47
2023-05-06T10:45:03.182Z,23.52
2023-05-06T10:48:10.035Z,23.48
2023-05-06T10:50:45.699Z,23.36
2023-05-06T10:54:03.728Z,23.04
2023-05-06T10:56:39.667Z,23.06
2023-05-06T10:59:13.828Z,22.51
2023-05-06T11:01:55.902Z,22.34
2023-05-06T11:04:30.280Z,22.91
2023-05-06T11:07:09.316Z,22.16
2023-05-06T11:09:55.637Z,22.67
2023-05-06T11:12:48.848Z,22.09
2023-05-06T11:15:25.910Z,22.77
2023-05-06T11:17:58.791Z,22.84
2023-05-06T11:20:31.676Z,22.43
2023-05-06T11:23:04.868Z,22.86
2023-05-06T11:25:42.040Z,23.46
2023-05-06T11:28:16.295Z,23.42
2023-05-06T11:30:55.150Z,24.18
2023-05-06T11:33:34.093Z,23.50
2023-05-06T11:36:08.035Z,22.93
2023-05-06T11:38:43.184Z,22.79
2023-05-06T11:41:16.639Z,23.00
2023-05-06T11:43:52.131Z,22.87
2023-05-06T11:46:25.373Z,23.18
2023-05-06T11:48:58.247Z,23.38
2023-05-06T11:51:32.463Z,23.34
2023-05-06T11:54:06.887Z,23.71
2023-05-06T11:56:47.893Z,22.67
2023-05-06T11:59:30.157Z,22.77
2023-05-06T12:02:05.657Z,23.34
2023-05-06T12:04:39.928Z,22.91
2023-05-06T12:07:13.209Z,23.49
2023-05-06T12:09:48.387Z,23.40
2023-05-06T12:12:23.977Z,23.76
2023-05-06T12:14:59.365Z,24.47
2023-05-06T12:17:32.411Z,23.26
2023-05-06T12:20:06.237Z,24.03
2023-05-06T12:22:40.358Z,24.22
2023-05-06T12:25:16.951Z,23.82
2023-05-06T12:27:49.836Z,23.30
2023-05-06T12:30:32.322Z,23.06
2023-05-06T12:33:05.224Z,23.51
2023-05-06T12:35:38.949Z,23.06
2023-05-06T12:38:13.831Z,23.93
2023-05-06T12:40:54.668Z,24.66
2023-05-06T12:43:32.171Z,25.39
2023-05-06T12:46:07.743Z,25.12
2023-05-06T12:48:40.616Z,24.88
2023-05-06T12:51:21.556Z,25.12
2023-05-06T12:53:54.777Z,25.45
2023-05-06T12:56:27.613Z,25.44
2023-05-06T12:59:01.480Z,26.50
2023-05-06T13:01:35.811Z,26.07
2023-05-06T13:04:08.700Z,25.61
2023-05-06T13:06:41.558Z,26.04
2023-05-06T13:09:15.390Z,26.13
2023-05-06T13:11:48.414Z,25.94
2023-05-06T13:14:21.993Z,25.67
2023-05-06T13:16:56.309Z,25.76
2023-05-06T13:19:32.939Z,26.36
2023-05-06T13:22:06.660Z,26.50
2023-05-06T13:24:39.406Z,26.05
2023-05-06T13:27:13.056Z,26.97
2023-05-06T13:29:45.954Z,26.13
2023-05-06T13:32:20.833Z,26.21
2023-05-06T13:34:53.682Z,26.86
2023-05-06T13:37:26.622Z,26.80
2023-05-06T13:39:59.444Z,26.65
2023-05-06T13:42:32.303Z,25.78
2023-05-06T13:45:05.849Z,26.41
2023-05-06T13:47:40.148Z,26.00
2023-05-06T13:50:13.089Z,26.51
2023-05-06T13:52:46.234Z,26.45
2023-05-06T13:55:19.507Z,25.86
2023-05-06T13:57:52.477Z,27.04
2023-05-06T14:00:25.505Z,26.94
2023-05-06T14:02:59.788Z,27.21
2023-05-06T14:05:33.393Z,26.88
2023-05-06T14:08:08.174Z,26.68
2023-05-06T14:10:41.053Z,27.31
2023-05-06T14:13:14.002Z,26.33
2023-05-06T14:15:47.003Z,26.51
2023-05-06T14:18:21.444Z,26.93
2023-05-06T14:20:54.497Z,26.31
2023-05-06T14:23:27.385Z,26.02
2023-05-06T14:26:00.259Z,26.21
2023-05-06T14:28:33.037Z,26.23
2023-05-06T14:31:06.401Z,26.73
2023-05-06T14:33:40.668Z,26.76
2023-05-06T14:36:19.200Z,26.87
2023-05-06T14:38:51.992Z,26.51
2023-05-06T14:41:25.405Z,26.67
2023-05-06T14:43:58.307Z,26.89
2023-05-06T14:46:31.377Z,27.86
2023-05-06T14:49:06.032Z,27.06
2023-05-06T14:51:38.857Z,26.92
2023-05-06T14:54:14.769Z,27.46
2023-05-06T14:56:49.317Z,27.30
2023-05-06T14:59:22.568Z,27.13
2023-05-06T15:01:56.833Z,27.37
2023-05-06T15:04:31.057Z,26.39
2023-05-06T15:07:03.912Z,25.23
2023-05-06T15:09:39.449Z,25.97
2023-05-06T15:12:12.714Z,26.37
2023-05-06T15:14:45.529Z,26.68
2023-05-06T15:17:18.670Z,27.01
2023-05-06T15:19:53.138Z,25.70
2023-05-06T15:22:26.096Z,25.78
2023-05-06T15:24:58.911Z,26.54
2023-05-06T15:27:32.765Z,25.71
2023-05-06T15:30:06.747Z,26.31
2023-05-06T15:32:39.907Z,26.13
2023-05-06T15:35:14.096Z,26.69
2023-05-06T15:37:46.946Z,26.77
2023-05-06T15:40:21.403Z,25.31
2023-05-06T15:42:54.238Z,25.49
2023-05-06T15:45:27.153Z,25.52
2023-05-06T15:48:00.065Z,25.11
2023-05-06T15:50:34.532Z,25.21
2023-05-06T15:53:07.465Z,25.71
2023-05-06T15:55:44.490Z,25.93
2023-05-06T15:58:22.445Z,25.33
2023-05-06T16:00:55.270Z,25.49
2023-05-06T16:03:28.383Z,25.36
2023-05-06T16:06:03.140Z,25.48
2023-05-06T16:08:36.047Z,24.93
2023-05-06T16:11:09.372Z,25.35
2023-05-06T16:13:43.309Z,25.05
2023-05-06T16:16:16.153Z,24.69
2023-05-06T16:18:49.290Z,25.01
2023-05-06T16:21:23.635Z,24.40
2023-05-06T16:23:56.440Z,24.72
2023-05-06T16:26:29.461Z,24.43
2023-05-06T16:29:02.247Z,23.90
2023-05-06T16:31:35.525Z,23.53
2023-05-06T16:34:08.358Z,23.99
2023-05-06T16:36:43.505Z,24.05
2023-05-06T16:39:16.327Z,23.78
2023-05-06T16:41:49.190Z,24.42
2023-05-06T16:44:22.029Z,23.84
2023-05-06T16:46:55.027Z,23.59
2023-05-06T16:49:28.634Z,23.59
2023-05-06T16:52:03.480Z,23.39
2023-05-06T16:54:36.328Z,23.17
2023-05-06T16:57:09.150Z,23.25
2023-05-06T16:59:41.971Z,23.41
2023-05-06T17:02:15.007Z,23.59
2023-05-06T17:04:47.979Z,23.18
2023-05-06T17:07:22.121Z,23.05
2023-05-06T17:09:55.086Z,22.17
2023-05-06T17:12:28.007Z,21.05
2023-05-06T17:15:00.862Z,20.36
2023-05-06T17:17:34.762Z,20.33
2023-05-06T17:20:09.471Z,19.72
2023-05-06T17:22:43.911Z,19.17
2023-05-06T17:25:16.544Z,18.99
2023-05-06T17:27:49.365Z,19.10
2023-05-06T17:30:22.660Z,18.54
2023-05-06T17:32:56.145Z,18.29
2023-05-06T17:35:28.966Z,18.54
2023-05-06T17:38:03.120Z,18.57
2023-05-06T17:40:38.324Z,18.44
2023-05-06T17:43:11.122Z,18.79
2023-05-06T17:45:44.068Z,19.22
2023-05-06T17:48:16.933Z,19.29
2023-05-06T17:50:49.746Z,19.11
2023-05-06T17:53:23.907Z,19.01
2023-05-06T17:55:56.931Z,19.09
2023-05-06T17:58:29.908Z,19.31
2023-05-06T18:01:02.875Z,19.43
2023-05-06T18:03:35.888Z,19.36
2023-05-06T18:06:12.537Z,19.39
2023-05-06T18:08:46.947Z,19.37
2023-05-06T18:11:19.925Z,19.16
2023-05-06T18:13:52.868Z,19.26
2023-05-06T18:16:26.009Z,19.29
2023-05-06T18:19:00.676Z,19.17
2023-05-06T18:21:34.472Z,19.12
2023-05-06T18:24:15.879Z,18.99
2023-05-06T18:26:49.510Z,18.99
2023-05-06T18:29:22.621Z,18.88
2023-05-06T18:31:55.504Z,18.66
2023-05-06T18:34:28.496Z,18.66
2023-05-06T18:37:02.894Z,18.66
2023-05-06T18:39:46.999Z,18.55
2023-05-06T18:42:19.930Z,18.53
2023-05-06T18:44:52.943Z,18.58
2023-05-06T18:47:26.298Z,18.20
2023-05-06T18:50:00.539Z,18.03
2023-05-06T18:52:35.840Z,18.25
2023-05-06T18:55:10.505Z,17.95
2023-05-06T18:57:43.445Z,18.05
2023-05-06T19:00:16.759Z,17.91
2023-05-06T19:02:49.871Z,17.77
2023-05-06T19:05:23.291Z,17.76
2023-05-06T19:07:56.097Z,17.59
2023-05-06T19:10:30.672Z,17.58
2023-05-06T19:13:04.930Z,17.57
2023-05-06T19:15:37.803Z,17.76
2023-05-06T19:18:12.100Z,17.28
2023-05-06T19:20:45.082Z,17.51
2023-05-06T19:23:17.922Z,17.66
2023-05-06T19:25:52.092Z,17.59
2023-05-06T19:28:24.896Z,17.73
2023-05-06T19:30:57.822Z,17.57
2023-05-06T19:33:30.658Z,17.52
2023-05-06T19:36:03.874Z,17.43
2023-05-06T19:38:36.649Z,17.46
2023-05-06T19:41:10.936Z,17.45
2023-05-06T19:43:44.599Z,17.53
2023-05-06T19:46:17.684Z,17.33
2023-05-06T19:48:50.604Z,17.31
2023-05-06T19:51:23.362Z,17.32
2023-05-06T19:53:56.209Z,17.01
2023-05-06T19:56:30.326Z,17.21
2023-05-06T19:59:03.508Z,17.33
2023-05-06T20:01:36.305Z,17.40
2023-05-06T20:04:09.877Z,17.39
2023-05-06T20:06:42.710Z,17.42
2023-05-06T20:09:15.624Z,17.35
2023-05-06T20:11:49.918Z,17.39
2023-05-06T20:14:22.992Z,17.13
2023-05-06T20:16:57.564Z,16.72
2023-05-06T20:19:31.086Z,16.63
2023-05-06T20:22:03.911Z,16.74
2023-05-06T20:24:38.495Z,16.65
2023-05-06T20:27:12.471Z,16.57
2023-05-06T20:29:45.432Z,16.76
2023-05-06T20:32:18.272Z,16.96
2023-05-06T20:34:51.264Z,17.04
2023-05-06T20:37:24.060Z,17.03
2023-05-06T20:39:56.967Z,16.98
2023-05-06T20:42:31.277Z,17.10
2023-05-06T20:45:06.802Z,16.89
2023-05-06T20:47:39.947Z,16.82
2023-05-06T20:50:16.870Z,16.88
2023-05-06T20:52:50.586Z,16.94
2023-05-06T20:55:24.520Z,16.98
2023-05-06T20:57:58.784Z,16.85
2023-05-06T21:00:31.597Z,16.73
2023-05-06T21:03:04.927Z,16.61
2023-05-06T21:05:37.816Z,16.69
2023-05-06T21:08:11.111Z,16.74
2023-05-06T21:10:43.885Z,16.67
2023-05-06T21:13:18.118Z,16.55
2023-05-06T21:15:50.946Z,16.61
2023-05-06T21:18:24.001Z,16.60
2023-05-06T21:20:56.966Z,16.62
2023-05-06T21:23:29.766Z,16.61
2023-05-06T21:26:04.976Z,16.51
2023-05-06T21:28:39.236Z,16.50
2023-05-06T21:31:12.093Z,16.41
2023-05-06T21:33:44.914Z,16.25
2023-05-06T21:36:17.795Z,16.19
2023-05-06T21:39:00.392Z,16.23
2023-05-06T21:41:35.275Z,16.35
2023-05-06T21:44:10.231Z,16.14
2023-05-06T21:46:43.341Z,16.13
2023-05-06T21:49:16.272Z,16.09
2023-05-06T21:51:49.174Z,16.20
2023-05-06T21:54:24.050Z,16.19
2023-05-06T21:56:56.776Z,16.26
2023-05-06T21:59:31.053Z,16.17
2023-05-06T22:02:03.970Z,16.26
2023-05-06T22:04:36.860Z,16.15
2023-05-06T22:07:09.602Z,16.11
2023-05-06T22:09:42.392Z,16.06
2023-05-06T22:12:15.407Z,15.94
2023-05-06T22:14:49.551Z,15.89
2023-05-06T22:17:22.452Z,15.90
2023-05-06T22:19:55.938Z,15.84
2023-05-06T22:22:28.959Z,15.84
2023-05-06T22:25:01.727Z,15.77
2023-05-06T22:27:34.640Z,15.65
2023-05-06T22:30:10.479Z,15.63
2023-05-06T22:32:43.419Z,15.66
2023-05-06T22:35:16.767Z,15.66
2023-05-06T22:37:49.696Z,15.41
2023-05-06T22:40:22.626Z,15.45
2023-05-06T22:42:55.410Z,15.44
2023-05-06T22:45:29.573Z,15.38
2023-05-06T22:48:02.586Z,15.38
2023-05-06T22:50:36.268Z,15.44
2023-05-06T22:53:15.062Z,15.34
2023-05-06T22:55:48.629Z,15.30
2023-05-06T22:58:21.462Z,15.30
2023-05-06T23:00:55.908Z,15.27
2023-05-06T23:03:29.036Z,15.25
2023-05-06T23:06:03.008Z,15.31
2023-05-06T23:08:35.773Z,15.30
2023-05-06T23:11:08.532Z,15.30
2023-05-06T23:13:41.696Z,15.30
2023-05-06T23:16:16.531Z,15.13
2023-05-06T23:18:49.728Z,15.01
2023-05-06T23:21:22.579Z,14.88
2023-05-06T23:23:55.496Z,14.91
2023-05-06T23:26:28.283Z,15.02
2023-05-06T23:29:01.276Z,15.06
2023-05-06T23:31:35.506Z,15.03
2023-05-06T23:34:08.301Z,14.99
2023-05-06T23:36:41.132Z,14.89
2023-05-06T23:39:13.881Z,14.69
2023-05-06T23:41:46.704Z,14.83
2023-05-06T23:44:20.015Z,14.90
2023-05-06T23:46:54.310Z,14.64
2023-05-06T23:49:27.828Z,14.49
2023-05-06T23:52:00.707Z,14.47
2023-05-06T23:54:33.570Z,14.57
2023-05-06T23:57:06.439Z,14.70
2023-05-06T23:59:39.351Z,14.80
